< < Back
Terminal Aerodrome Forecast


Current Version              Previous Versions:   1  2  3  4  5  6  7  8  9  

Terminal Aerodrome Forecast

279
FTUS44 KMRX 281137
TAFTYS
TAF
KTYS 281137Z 2812/2912 VRB02KT P6SM VCSH SCT050 BKN120
     FM281400 VRB04KT P6SM VCTS SCT035CB BKN100
     FM281900 07004KT 5SM -TSRA BR BKN040CB OVC080
     FM290200 VRB03KT P6SM VCSH SCT035 BKN080
     FM290700 00000KT P6SM FEW040 OVC100=



Latest METAR

367
SAUS80 KWBC 291000
MTRTYS
METAR KTYS 290953Z 36004KT 10SM SCT039 BKN250 19/18 A3017 RMK AO2 SLP205
T01940183


USA.gov is the U.S. government's official web portal to all federal, state and local government web resources and services.